createdAt,value
2023-05-23T00:02:04.694Z,0
2023-05-23T00:12:04.456Z,0
2023-05-23T00:22:04.173Z,0
2023-05-23T00:32:03.402Z,0
2023-05-23T00:42:03.046Z,0
2023-05-23T00:52:02.606Z,0
2023-05-23T01:02:02.469Z,0
2023-05-23T01:12:02.144Z,0
2023-05-23T01:22:01.545Z,0
2023-05-23T01:32:01.288Z,0
2023-05-23T01:42:00.910Z,0
2023-05-23T01:52:01.192Z,0
2023-05-23T02:02:00.825Z,0
2023-05-23T02:12:00.193Z,0
2023-05-23T02:22:00.500Z,0
2023-05-23T02:32:00.498Z,0
2023-05-23T02:41:59.922Z,0
2023-05-23T02:51:59.318Z,0
2023-05-23T03:02:04.967Z,0
2023-05-23T03:12:04.365Z,0
2023-05-23T03:22:03.050Z,0
2023-05-23T03:32:03.368Z,0
2023-05-23T03:42:02.612Z,0
2023-05-23T03:52:01.958Z,1068.1
2023-05-23T04:02:02.515Z,1068.1
2023-05-23T04:12:02.780Z,1068.1
2023-05-23T04:22:03.910Z,1068.1
2023-05-23T04:32:04.595Z,1068.1
2023-05-23T04:42:05.656Z,1068.1
2023-05-23T04:52:06.385Z,1068.1
2023-05-23T05:02:06.602Z,1068.1
2023-05-23T05:12:06.294Z,1068.1
2023-05-23T05:22:05.660Z,1068.1
2023-05-23T05:32:05.252Z,1068.1
2023-05-23T05:42:05.190Z,1068.1
2023-05-23T05:52:04.436Z,1068.1
2023-05-23T06:02:07.045Z,1068.1
2023-05-23T06:12:12.180Z,1068.1
2023-05-23T06:22:18.174Z,1068.1
2023-05-23T06:32:28.889Z,1068.1
2023-05-23T06:42:44.522Z,1068.1
2023-05-23T06:53:00.324Z,1068.1
2023-05-23T07:03:17.353Z,1068.1
2023-05-23T07:13:34.400Z,1068.1
2023-05-23T07:23:51.175Z,1068.1
2023-05-23T07:34:07.511Z,1068.1
2023-05-23T07:44:25.035Z,1068.1
2023-05-23T07:54:39.994Z,1068.1
2023-05-23T08:04:58.399Z,1068.1
2023-05-23T08:15:16.714Z,1068.1
2023-05-23T08:25:35.112Z,1068.1
2023-05-23T08:35:53.695Z,1068.1
2023-05-23T08:46:11.490Z,105.8
2023-05-23T08:56:30.940Z,107.8
2023-05-23T09:02:09.224Z,0
2023-05-23T09:12:26.323Z,0
2023-05-23T09:22:44.631Z,114.1
2023-05-23T09:33:05.715Z,116.6
2023-05-23T09:43:23.321Z,118.8
2023-05-23T09:53:41.341Z,119.3
2023-05-23T10:04:01.100Z,122.1
2023-05-23T10:14:21.623Z,123.4
2023-05-23T10:24:42.202Z,124.7
2023-05-23T10:35:02.307Z,126.8
2023-05-23T10:45:22.660Z,127.9
2023-05-23T10:55:41.308Z,127.9
2023-05-23T11:05:59.107Z,127.9
2023-05-23T11:16:14.287Z,127.9
2023-05-23T11:26:28.466Z,127.9
2023-05-23T11:36:42.388Z,127.9
2023-05-23T11:46:56.115Z,127.9
2023-05-23T11:57:10.237Z,127.9
2023-05-23T12:07:24.142Z,127.9
2023-05-23T12:17:38.073Z,127.9
2023-05-23T12:27:50.569Z,127.9
2023-05-23T12:38:03.749Z,127.9
2023-05-23T12:48:17.271Z,127.9
2023-05-23T12:58:31.211Z,127.9
2023-05-23T13:08:38.447Z,127.9
2023-05-23T13:18:50.029Z,127.9
2023-05-23T13:29:01.425Z,127.9
2023-05-23T13:39:08.488Z,127.9
2023-05-23T13:49:18.014Z,127.9
2023-05-23T13:59:22.191Z,127.9
2023-05-23T14:09:26.759Z,127.9
2023-05-23T14:19:27.513Z,127.9
2023-05-23T14:29:27.753Z,127.9
2023-05-23T14:39:28.110Z,127.9
2023-05-23T14:49:29.029Z,127.9
2023-05-23T14:59:29.353Z,127.9
2023-05-23T15:02:04.242Z,122.1
2023-05-23T15:12:05.407Z,114.9
2023-05-23T15:22:06.434Z,113.7
2023-05-23T15:32:07.119Z,113.7
2023-05-23T15:42:06.953Z,113.7
2023-05-23T15:52:07.596Z,113.7
2023-05-23T16:02:08.695Z,113.7
2023-05-23T16:12:10.012Z,113.7
2023-05-23T16:22:10.719Z,113.7
2023-05-23T16:32:11.521Z,113.7
2023-05-23T16:42:11.946Z,113.7
2023-05-23T16:52:12.665Z,113.7
2023-05-23T17:02:13.399Z,113.7
2023-05-23T17:12:13.061Z,113.7
2023-05-23T17:22:13.311Z,113.7
2023-05-23T17:32:13.596Z,113.7
2023-05-23T17:42:12.945Z,113.7
2023-05-23T17:52:12.813Z,113.7
2023-05-23T18:02:12.916Z,113.7
2023-05-23T18:12:12.966Z,113.7
2023-05-23T18:22:12.317Z,113.7
2023-05-23T18:32:12.038Z,113.7
2023-05-23T18:42:11.665Z,113.7
2023-05-23T18:52:11.272Z,113.7
2023-05-23T19:02:10.720Z,113.7
2023-05-23T19:12:10.572Z,113.7
2023-05-23T19:22:09.698Z,113.7
2023-05-23T19:32:09.352Z,113.7
2023-05-23T19:42:08.516Z,113.7
2023-05-23T19:52:08.675Z,113.7
2023-05-23T20:02:08.164Z,113.7
2023-05-23T20:12:07.397Z,113.7
2023-05-23T20:22:07.148Z,113.7
2023-05-23T20:32:06.516Z,113.7
2023-05-23T20:42:05.878Z,113.7
2023-05-23T20:52:05.397Z,113.7
2023-05-23T21:02:04.765Z,0
2023-05-23T21:12:05.950Z,33.3
2023-05-23T21:22:07.282Z,31.6
2023-05-23T21:32:08.739Z,30.1
2023-05-23T21:42:10.095Z,28.4
2023-05-23T21:52:11.657Z,27.6
2023-05-23T22:02:13.565Z,27
2023-05-23T22:12:16.352Z,26.1
2023-05-23T22:22:19.138Z,25.7
2023-05-23T22:32:21.894Z,25
2023-05-23T22:42:24.429Z,24.1
2023-05-23T22:52:27.345Z,23.8
2023-05-23T23:02:29.197Z,23.2
2023-05-23T23:12:30.582Z,22.5
2023-05-23T23:22:32.089Z,21.8
2023-05-23T23:32:34.208Z,21.8
2023-05-23T23:42:35.127Z,20.9
2023-05-23T23:52:36.570Z,20.4
